sensor_id;sensor_type;location;lat;lon;timestamp;pressure;altitude;pressure_sealevel;temperature;humidity
61676;BME280;47574;52.090;5.244;2022-08-01T00:00:23;101645.0;;;24.72;58.85
61676;BME280;47574;52.090;5.244;2022-08-01T00:03:56;101647.0;;;24.87;58.88
61676;BME280;47574;52.090;5.244;2022-08-01T00:05:45;101650.0;;;24.73;59.18
61676;BME280;47574;52.090;5.244;2022-08-01T00:07:31;101645.0;;;24.94;58.76
61676;BME280;47574;52.090;5.244;2022-08-01T00:09:17;101647.0;;;24.69;59.56
61676;BME280;47574;52.090;5.244;2022-08-01T00:11:04;101646.0;;;24.46;60.29
61676;BME280;47574;52.090;5.244;2022-08-01T00:12:51;101649.0;;;24.62;59.99
61676;BME280;47574;52.090;5.244;2022-08-01T00:16:24;101643.0;;;24.8;59.53
61676;BME280;47574;52.090;5.244;2022-08-01T00:18:11;101647.0;;;24.65;59.74
61676;BME280;47574;52.090;5.244;2022-08-01T00:19:57;101640.0;;;24.8;59.71
61676;BME280;47574;52.090;5.244;2022-08-01T00:21:44;101642.0;;;24.82;59.59
61676;BME280;47574;52.090;5.244;2022-08-01T00:23:31;101646.0;;;24.71;59.61
61676;BME280;47574;52.090;5.244;2022-08-01T00:25:18;101645.0;;;24.83;59.56
61676;BME280;47574;52.090;5.244;2022-08-01T00:28:51;101649.0;;;24.84;59.68
61676;BME280;47574;52.090;5.244;2022-08-01T00:30:37;101655.0;;;24.72;59.99
61676;BME280;47574;52.090;5.244;2022-08-01T00:32:23;101655.0;;;24.6;59.92
61676;BME280;47574;52.090;5.244;2022-08-01T00:34:10;101655.0;;;24.43;60.59
61676;BME280;47574;52.090;5.244;2022-08-01T00:35:57;101650.0;;;24.62;60.17
61676;BME280;47574;52.090;5.244;2022-08-01T00:39:32;101649.0;;;24.63;60.31
61676;BME280;47574;52.090;5.244;2022-08-01T00:41:19;101643.0;;;24.12;61.45
61676;BME280;47574;52.090;5.244;2022-08-01T00:43:05;101647.0;;;24.1;61.76
61676;BME280;47574;52.090;5.244;2022-08-01T00:44:51;101652.0;;;24.27;61.31
61676;BME280;47574;52.090;5.244;2022-08-01T00:46:37;101651.0;;;24.51;60.75
61676;BME280;47574;52.090;5.244;2022-08-01T00:48:23;101648.0;;;24.51;60.45
61676;BME280;47574;52.090;5.244;2022-08-01T00:51:58;101652.0;;;24.53;60.83
61676;BME280;47574;52.090;5.244;2022-08-01T00:53:45;101651.0;;;24.72;60.33
61676;BME280;47574;52.090;5.244;2022-08-01T00:55:32;101656.0;;;24.74;60.1
61676;BME280;47574;52.090;5.244;2022-08-01T00:57:18;101660.0;;;24.62;60.49
61676;BME280;47574;52.090;5.244;2022-08-01T00:59:06;101660.0;;;24.71;60.32
61676;BME280;47574;52.090;5.244;2022-08-01T01:00:54;101662.0;;;24.78;60.2
61676;BME280;47574;52.090;5.244;2022-08-01T01:04:26;101657.0;;;24.87;60.01
61676;BME280;47574;52.090;5.244;2022-08-01T01:06:23;101659.0;;;24.65;60.42
61676;BME280;47574;52.090;5.244;2022-08-01T01:08:16;101659.0;;;24.78;60.25
61676;BME280;47574;52.090;5.244;2022-08-01T01:10:11;101660.0;;;24.63;60.45
61676;BME280;47574;52.090;5.244;2022-08-01T01:12:10;101655.0;;;24.72;60.33
61676;BME280;47574;52.090;5.244;2022-08-01T01:14:02;101656.0;;;24.67;60.56
61676;BME280;47574;52.090;5.244;2022-08-01T01:15:58;101655.0;;;24.68;60.3
61676;BME280;47574;52.090;5.244;2022-08-01T01:17:48;101653.0;;;24.69;60.2
61676;BME280;47574;52.090;5.244;2022-08-01T01:19:45;101655.0;;;24.51;60.87
61676;BME280;47574;52.090;5.244;2022-08-01T01:23:44;101649.0;;;24.29;61.33
61676;BME280;47574;52.090;5.244;2022-08-01T01:25:45;101649.0;;;24.55;60.61
61676;BME280;47574;52.090;5.244;2022-08-01T01:27:45;101648.0;;;24.37;61.12
61676;BME280;47574;52.090;5.244;2022-08-01T01:29:41;101643.0;;;24.37;61.2
61676;BME280;47574;52.090;5.244;2022-08-01T01:31:31;101642.0;;;24.46;61.07
61676;BME280;47574;52.090;5.244;2022-08-01T01:33:21;101641.0;;;24.64;60.49
61676;BME280;47574;52.090;5.244;2022-08-01T01:35:13;101640.0;;;24.69;60.46
61676;BME280;47574;52.090;5.244;2022-08-01T01:37:12;101647.0;;;24.65;60.51
61676;BME280;47574;52.090;5.244;2022-08-01T01:39:05;101648.0;;;24.42;60.88
61676;BME280;47574;52.090;5.244;2022-08-01T01:40:53;101653.0;;;24.53;60.95
61676;BME280;47574;52.090;5.244;2022-08-01T01:42:43;101649.0;;;24.56;60.72
61676;BME280;47574;52.090;5.244;2022-08-01T01:46:22;101646.0;;;24.57;60.66
61676;BME280;47574;52.090;5.244;2022-08-01T01:48:10;101647.0;;;24.42;61.09
61676;BME280;47574;52.090;5.244;2022-08-01T01:50:02;101649.0;;;24.49;61.01
61676;BME280;47574;52.090;5.244;2022-08-01T01:51:50;101651.0;;;24.47;60.95
61676;BME280;47574;52.090;5.244;2022-08-01T01:53:40;101655.0;;;24.5;60.96
61676;BME280;47574;52.090;5.244;2022-08-01T01:55:28;101655.0;;;24.49;61.03
61676;BME280;47574;52.090;5.244;2022-08-01T01:59:04;101652.0;;;24.16;62.05
61676;BME280;47574;52.090;5.244;2022-08-01T02:00:52;101655.0;;;24.48;61.24
61676;BME280;47574;52.090;5.244;2022-08-01T02:02:41;101659.0;;;24.69;60.72
61676;BME280;47574;52.090;5.244;2022-08-01T02:04:29;101655.0;;;24.76;60.44
61676;BME280;47574;52.090;5.244;2022-08-01T02:06:18;101655.0;;;24.55;60.91
61676;BME280;47574;52.090;5.244;2022-08-01T02:08:05;101653.0;;;24.33;61.62
61676;BME280;47574;52.090;5.244;2022-08-01T02:09:54;101650.0;;;24.32;62.01
61676;BME280;47574;52.090;5.244;2022-08-01T02:13:30;101652.0;;;24.39;61.87
61676;BME280;47574;52.090;5.244;2022-08-01T02:15:19;101655.0;;;24.39;61.93
61676;BME280;47574;52.090;5.244;2022-08-01T02:17:06;101658.0;;;24.47;61.54
61676;BME280;47574;52.090;5.244;2022-08-01T02:18:57;101657.0;;;24.4;61.7
61676;BME280;47574;52.090;5.244;2022-08-01T02:20:45;101656.0;;;24.34;62.03
61676;BME280;47574;52.090;5.244;2022-08-01T02:22:34;101653.0;;;24.2;62.57
61676;BME280;47574;52.090;5.244;2022-08-01T02:26:24;101655.0;;;24.34;62.2
61676;BME280;47574;52.090;5.244;2022-08-01T02:28:15;101657.0;;;24.5;62.07
61676;BME280;47574;52.090;5.244;2022-08-01T02:30:06;101659.0;;;24.59;61.6
61676;BME280;47574;52.090;5.244;2022-08-01T02:31:55;101656.0;;;24.63;61.31
61676;BME280;47574;52.090;5.244;2022-08-01T02:33:46;101655.0;;;24.57;61.66
61676;BME280;47574;52.090;5.244;2022-08-01T02:35:37;101653.0;;;24.42;61.98
61676;BME280;47574;52.090;5.244;2022-08-01T02:37:29;101660.0;;;24.48;61.76
61676;BME280;47574;52.090;5.244;2022-08-01T02:39:21;101668.0;;;24.66;61.53
61676;BME280;47574;52.090;5.244;2022-08-01T02:43:00;101662.0;;;24.53;61.68
61676;BME280;47574;52.090;5.244;2022-08-01T02:44:49;101660.0;;;24.22;62.46
61676;BME280;47574;52.090;5.244;2022-08-01T02:46:40;101661.0;;;24.3;62.38
61676;BME280;47574;52.090;5.244;2022-08-01T02:48:30;101665.0;;;24.3;62.29
61676;BME280;47574;52.090;5.244;2022-08-01T02:50:20;101662.0;;;24.44;61.77
61676;BME280;47574;52.090;5.244;2022-08-01T02:52:12;101660.0;;;24.48;61.88
61676;BME280;47574;52.090;5.244;2022-08-01T02:54:02;101655.0;;;24.43;62.07
61676;BME280;47574;52.090;5.244;2022-08-01T02:57:40;101660.0;;;24.58;61.79
61676;BME280;47574;52.090;5.244;2022-08-01T02:59:31;101659.0;;;24.65;61.55
61676;BME280;47574;52.090;5.244;2022-08-01T03:01:20;101656.0;;;24.58;61.47
61676;BME280;47574;52.090;5.244;2022-08-01T03:03:09;101652.0;;;24.49;61.9
61676;BME280;47574;52.090;5.244;2022-08-01T03:04:58;101646.0;;;24.48;61.95
61676;BME280;47574;52.090;5.244;2022-08-01T03:06:46;101644.0;;;24.31;62.2
61676;BME280;47574;52.090;5.244;2022-08-01T03:08:34;101647.0;;;24.42;61.74
61676;BME280;47574;52.090;5.244;2022-08-01T03:12:16;101650.0;;;24.39;62.14
61676;BME280;47574;52.090;5.244;2022-08-01T03:14:12;101648.0;;;24.57;61.7
61676;BME280;47574;52.090;5.244;2022-08-01T03:16:01;101646.0;;;24.38;62.02
61676;BME280;47574;52.090;5.244;2022-08-01T03:17:52;101651.0;;;24.44;61.74
61676;BME280;47574;52.090;5.244;2022-08-01T03:19:41;101653.0;;;24.53;61.83
61676;BME280;47574;52.090;5.244;2022-08-01T03:21:31;101657.0;;;24.37;62.09
61676;BME280;47574;52.090;5.244;2022-08-01T03:23:21;101657.0;;;24.5;61.65
61676;BME280;47574;52.090;5.244;2022-08-01T03:26:57;101658.0;;;24.59;61.62
61676;BME280;47574;52.090;5.244;2022-08-01T03:28:46;101662.0;;;24.53;61.48
61676;BME280;47574;52.090;5.244;2022-08-01T03:30:35;101659.0;;;24.19;62.05
61676;BME280;47574;52.090;5.244;2022-08-01T03:32:23;101658.0;;;24.21;62.06
61676;BME280;47574;52.090;5.244;2022-08-01T03:34:11;101662.0;;;24.31;61.93
61676;BME280;47574;52.090;5.244;2022-08-01T03:36:00;101664.0;;;24.26;62.15
61676;BME280;47574;52.090;5.244;2022-08-01T03:37:50;101669.0;;;24.45;61.67
61676;BME280;47574;52.090;5.244;2022-08-01T03:41:37;101662.0;;;24.28;61.65
61676;BME280;47574;52.090;5.244;2022-08-01T03:43:30;101666.0;;;24.29;61.93
61676;BME280;47574;52.090;5.244;2022-08-01T03:45:25;101669.0;;;24.38;61.54
61676;BME280;47574;52.090;5.244;2022-08-01T03:47:14;101669.0;;;24.34;61.65
61676;BME280;47574;52.090;5.244;2022-08-01T03:49:20;101669.0;;;24.35;61.79
61676;BME280;47574;52.090;5.244;2022-08-01T03:51:08;101665.0;;;24.15;62.07
61676;BME280;47574;52.090;5.244;2022-08-01T03:52:59;101659.0;;;24.14;62.18
61676;BME280;47574;52.090;5.244;2022-08-01T03:54:48;101658.0;;;24.08;62.26
61676;BME280;47574;52.090;5.244;2022-08-01T03:56:39;101662.0;;;24.01;62.53
61676;BME280;47574;52.090;5.244;2022-08-01T04:00:18;101661.0;;;24.09;62.23
61676;BME280;47574;52.090;5.244;2022-08-01T04:02:06;101663.0;;;23.98;62.45
61676;BME280;47574;52.090;5.244;2022-08-01T04:03:53;101664.0;;;23.95;62.63
61676;BME280;47574;52.090;5.244;2022-08-01T04:05:40;101668.0;;;23.92;62.43
61676;BME280;47574;52.090;5.244;2022-08-01T04:07:29;101669.0;;;24.08;61.97
61676;BME280;47574;52.090;5.244;2022-08-01T04:09:16;101666.0;;;23.96;61.99
61676;BME280;47574;52.090;5.244;2022-08-01T04:12:51;101667.0;;;23.94;62.09
61676;BME280;47574;52.090;5.244;2022-08-01T04:14:38;101665.0;;;23.89;62.32
61676;BME280;47574;52.090;5.244;2022-08-01T04:16:24;101665.0;;;23.9;62.12
61676;BME280;47574;52.090;5.244;2022-08-01T04:18:11;101668.0;;;23.9;62.2
61676;BME280;47574;52.090;5.244;2022-08-01T04:19:57;101671.0;;;23.76;62.51
61676;BME280;47574;52.090;5.244;2022-08-01T04:21:44;101675.0;;;23.77;62.48
61676;BME280;47574;52.090;5.244;2022-08-01T04:25:24;101680.0;;;23.71;62.72
61676;BME280;47574;52.090;5.244;2022-08-01T04:27:15;101680.0;;;23.8;62.53
61676;BME280;47574;52.090;5.244;2022-08-01T04:29:10;101681.0;;;23.97;62.26
61676;BME280;47574;52.090;5.244;2022-08-01T04:30:59;101683.0;;;23.86;62.36
61676;BME280;47574;52.090;5.244;2022-08-01T04:32:47;101686.0;;;23.93;62.53
61676;BME280;47574;52.090;5.244;2022-08-01T04:34:38;101685.0;;;23.96;62.22
61676;BME280;47574;52.090;5.244;2022-08-01T04:36:26;101683.0;;;24.08;62.02
61676;BME280;47574;52.090;5.244;2022-08-01T04:40:10;101687.0;;;23.87;62.24
61676;BME280;47574;52.090;5.244;2022-08-01T04:41:59;101692.0;;;23.95;62.01
61676;BME280;47574;52.090;5.244;2022-08-01T04:43:46;101691.0;;;24.02;61.72
61676;BME280;47574;52.090;5.244;2022-08-01T04:45:34;101692.0;;;23.86;62.2
61676;BME280;47574;52.090;5.244;2022-08-01T04:47:22;101694.0;;;23.68;62.57
61676;BME280;47574;52.090;5.244;2022-08-01T04:49:10;101694.0;;;23.71;62.55
61676;BME280;47574;52.090;5.244;2022-08-01T04:52:42;101699.0;;;23.85;62.33
61676;BME280;47574;52.090;5.244;2022-08-01T04:54:30;101700.0;;;23.78;62.58
61676;BME280;47574;52.090;5.244;2022-08-01T04:56:19;101707.0;;;23.88;62.3
61676;BME280;47574;52.090;5.244;2022-08-01T04:58:08;101709.0;;;23.77;62.54
61676;BME280;47574;52.090;5.244;2022-08-01T04:59:56;101708.0;;;23.84;62.4
61676;BME280;47574;52.090;5.244;2022-08-01T05:01:48;101710.0;;;23.87;62.31
61676;BME280;47574;52.090;5.244;2022-08-01T05:03:35;101707.0;;;24.01;62.06
61676;BME280;47574;52.090;5.244;2022-08-01T05:07:08;101711.0;;;24.04;61.73
61676;BME280;47574;52.090;5.244;2022-08-01T05:08:56;101711.0;;;24.08;61.8
61676;BME280;47574;52.090;5.244;2022-08-01T05:10:42;101713.0;;;24.04;61.87
61676;BME280;47574;52.090;5.244;2022-08-01T05:12:29;101715.0;;;24.0;61.81
61676;BME280;47574;52.090;5.244;2022-08-01T05:14:15;101708.0;;;24.01;61.78
61676;BME280;47574;52.090;5.244;2022-08-01T05:17:50;101713.0;;;24.09;61.68
61676;BME280;47574;52.090;5.244;2022-08-01T05:19:38;101715.0;;;24.18;61.5
61676;BME280;47574;52.090;5.244;2022-08-01T05:21:25;101713.0;;;23.86;61.72
61676;BME280;47574;52.090;5.244;2022-08-01T05:23:12;101715.0;;;24.09;61.3
61676;BME280;47574;52.090;5.244;2022-08-01T05:24:59;101721.0;;;24.09;61.82
61676;BME280;47574;52.090;5.244;2022-08-01T05:26:45;101725.0;;;24.17;61.18
61676;BME280;47574;52.090;5.244;2022-08-01T05:30:18;101724.0;;;24.14;60.89
61676;BME280;47574;52.090;5.244;2022-08-01T05:32:04;101726.0;;;24.18;60.53
61676;BME280;47574;52.090;5.244;2022-08-01T05:33:51;101725.0;;;23.99;60.8
61676;BME280;47574;52.090;5.244;2022-08-01T05:35:37;101722.0;;;23.79;60.89
61676;BME280;47574;52.090;5.244;2022-08-01T05:37:24;101724.0;;;23.93;61.12
61676;BME280;47574;52.090;5.244;2022-08-01T05:39:11;101726.0;;;23.95;61.1
61676;BME280;47574;52.090;5.244;2022-08-01T05:42:43;101735.0;;;23.88;60.78
61676;BME280;47574;52.090;5.244;2022-08-01T05:44:30;101733.0;;;23.77;61.33
61676;BME280;47574;52.090;5.244;2022-08-01T05:46:17;101731.0;;;23.91;61.07
61676;BME280;47574;52.090;5.244;2022-08-01T05:48:04;101731.0;;;23.9;61.54
61676;BME280;47574;52.090;5.244;2022-08-01T05:49:50;101736.0;;;23.8;61.84
61676;BME280;47574;52.090;5.244;2022-08-01T05:53:22;101737.0;;;23.69;61.91
61676;BME280;47574;52.090;5.244;2022-08-01T05:55:09;101735.0;;;23.81;62.1
61676;BME280;47574;52.090;5.244;2022-08-01T05:56:59;101738.0;;;23.91;61.32
61676;BME280;47574;52.090;5.244;2022-08-01T05:58:46;101740.0;;;23.53;62.54
61676;BME280;47574;52.090;5.244;2022-08-01T06:00:33;101742.0;;;23.76;62.21
61676;BME280;47574;52.090;5.244;2022-08-01T06:02:20;101745.0;;;23.84;62.02
61676;BME280;47574;52.090;5.244;2022-08-01T06:05:52;101752.0;;;23.7;62.56
61676;BME280;47574;52.090;5.244;2022-08-01T06:07:40;101750.0;;;23.57;62.55
61676;BME280;47574;52.090;5.244;2022-08-01T06:09:26;101750.0;;;23.63;62.53
61676;BME280;47574;52.090;5.244;2022-08-01T06:13:03;101752.0;;;23.94;61.97
61676;BME280;47574;52.090;5.244;2022-08-01T06:14:49;101756.0;;;23.67;62.59
61676;BME280;47574;52.090;5.244;2022-08-01T06:18:21;101758.0;;;23.85;62.17
61676;BME280;47574;52.090;5.244;2022-08-01T06:20:09;101760.0;;;23.77;62.04
61676;BME280;47574;52.090;5.244;2022-08-01T06:21:56;101760.0;;;23.43;62.65
61676;BME280;47574;52.090;5.244;2022-08-01T06:23:42;101761.0;;;23.77;62.08
61676;BME280;47574;52.090;5.244;2022-08-01T06:25:29;101757.0;;;23.81;62.0
61676;BME280;47574;52.090;5.244;2022-08-01T06:27:16;101759.0;;;23.89;61.85
61676;BME280;47574;52.090;5.244;2022-08-01T06:30:49;101755.0;;;23.79;62.71
61676;BME280;47574;52.090;5.244;2022-08-01T06:32:36;101756.0;;;23.79;62.2
61676;BME280;47574;52.090;5.244;2022-08-01T06:34:23;101760.0;;;23.87;62.09
61676;BME280;47574;52.090;5.244;2022-08-01T06:36:09;101760.0;;;23.85;62.04
61676;BME280;47574;52.090;5.244;2022-08-01T06:37:56;101761.0;;;23.7;63.06
61676;BME280;47574;52.090;5.244;2022-08-01T06:41:29;101762.0;;;23.83;62.59
61676;BME280;47574;52.090;5.244;2022-08-01T06:43:15;101762.0;;;23.88;61.87
61676;BME280;47574;52.090;5.244;2022-08-01T06:45:02;101765.0;;;23.87;62.06
61676;BME280;47574;52.090;5.244;2022-08-01T06:46:49;101769.0;;;23.98;61.73
61676;BME280;47574;52.090;5.244;2022-08-01T06:48:39;101767.0;;;23.78;62.42
61676;BME280;47574;52.090;5.244;2022-08-01T06:50:25;101765.0;;;24.01;62.46
61676;BME280;47574;52.090;5.244;2022-08-01T06:53:58;101768.0;;;23.99;62.73
61676;BME280;47574;52.090;5.244;2022-08-01T06:55:44;101767.0;;;24.09;62.54
61676;BME280;47574;52.090;5.244;2022-08-01T06:57:30;101771.0;;;23.92;62.17
61676;BME280;47574;52.090;5.244;2022-08-01T06:59:17;101770.0;;;23.9;62.37
61676;BME280;47574;52.090;5.244;2022-08-01T07:01:06;101766.0;;;24.05;61.46
61676;BME280;47574;52.090;5.244;2022-08-01T07:02:55;101771.0;;;23.99;61.34
61676;BME280;47574;52.090;5.244;2022-08-01T07:06:29;101772.0;;;23.93;61.39
61676;BME280;47574;52.090;5.244;2022-08-01T07:08:15;101769.0;;;24.07;61.33
61676;BME280;47574;52.090;5.244;2022-08-01T07:10:04;101774.0;;;24.1;61.07
61676;BME280;47574;52.090;5.244;2022-08-01T07:11:53;101777.0;;;24.08;61.38
61676;BME280;47574;52.090;5.244;2022-08-01T07:13:40;101774.0;;;24.22;61.05
61676;BME280;47574;52.090;5.244;2022-08-01T07:15:26;101781.0;;;24.01;61.24
61676;BME280;47574;52.090;5.244;2022-08-01T07:19:00;101780.0;;;23.91;61.79
61676;BME280;47574;52.090;5.244;2022-08-01T07:20:46;101780.0;;;24.17;61.62
61676;BME280;47574;52.090;5.244;2022-08-01T07:22:32;101788.0;;;23.99;62.2
61676;BME280;47574;52.090;5.244;2022-08-01T07:24:19;101788.0;;;23.94;62.87
61676;BME280;47574;52.090;5.244;2022-08-01T07:26:06;101791.0;;;23.87;62.56
61676;BME280;47574;52.090;5.244;2022-08-01T07:27:53;101796.0;;;23.66;62.81
61676;BME280;47574;52.090;5.244;2022-08-01T07:31:25;101792.0;;;23.79;62.74
61676;BME280;47574;52.090;5.244;2022-08-01T07:33:12;101798.0;;;23.74;63.22
61676;BME280;47574;52.090;5.244;2022-08-01T07:34:58;101802.0;;;23.87;62.83
61676;BME280;47574;52.090;5.244;2022-08-01T07:36:45;101795.0;;;23.73;62.48
61676;BME280;47574;52.090;5.244;2022-08-01T07:38:32;101798.0;;;23.71;62.32
61676;BME280;47574;52.090;5.244;2022-08-01T07:42:06;101801.0;;;23.64;62.3
61676;BME280;47574;52.090;5.244;2022-08-01T07:43:53;101814.0;;;23.51;62.4
61676;BME280;47574;52.090;5.244;2022-08-01T07:45:40;101813.0;;;23.65;62.28
61676;BME280;47574;52.090;5.244;2022-08-01T07:47:27;101820.0;;;23.38;62.35
61676;BME280;47574;52.090;5.244;2022-08-01T07:49:13;101818.0;;;23.5;62.26
61676;BME280;47574;52.090;5.244;2022-08-01T07:51:01;101820.0;;;23.46;62.2
61676;BME280;47574;52.090;5.244;2022-08-01T07:54:33;101816.0;;;23.44;61.7
61676;BME280;47574;52.090;5.244;2022-08-01T07:56:20;101814.0;;;23.44;61.72
61676;BME280;47574;52.090;5.244;2022-08-01T07:58:06;101817.0;;;23.52;61.73
61676;BME280;47574;52.090;5.244;2022-08-01T07:59:53;101821.0;;;23.62;61.23
61676;BME280;47574;52.090;5.244;2022-08-01T08:01:41;101821.0;;;23.52;61.72
61676;BME280;47574;52.090;5.244;2022-08-01T08:03:28;101825.0;;;23.64;61.51
61676;BME280;47574;52.090;5.244;2022-08-01T08:07:01;101819.0;;;23.81;61.49
61676;BME280;47574;52.090;5.244;2022-08-01T08:08:48;101825.0;;;23.97;61.23
61676;BME280;47574;52.090;5.244;2022-08-01T08:10:34;101827.0;;;24.09;60.99
61676;BME280;47574;52.090;5.244;2022-08-01T08:12:20;101825.0;;;24.04;60.63
61676;BME280;47574;52.090;5.244;2022-08-01T08:14:07;101827.0;;;24.22;59.78
61676;BME280;47574;52.090;5.244;2022-08-01T08:17:40;101826.0;;;23.81;60.25
61676;BME280;47574;52.090;5.244;2022-08-01T08:19:26;101827.0;;;23.99;60.24
61676;BME280;47574;52.090;5.244;2022-08-01T08:21:12;101830.0;;;24.09;60.27
61676;BME280;47574;52.090;5.244;2022-08-01T08:22:58;101832.0;;;24.12;59.97
61676;BME280;47574;52.090;5.244;2022-08-01T08:24:45;101835.0;;;24.27;60.1
61676;BME280;47574;52.090;5.244;2022-08-01T08:26:32;101838.0;;;24.14;60.4
61676;BME280;47574;52.090;5.244;2022-08-01T08:30:08;101836.0;;;24.37;59.53
61676;BME280;47574;52.090;5.244;2022-08-01T08:31:55;101834.0;;;24.28;59.74
61676;BME280;47574;52.090;5.244;2022-08-01T08:33:42;101833.0;;;24.41;59.0
61676;BME280;47574;52.090;5.244;2022-08-01T08:35:28;101837.0;;;24.28;58.62
61676;BME280;47574;52.090;5.244;2022-08-01T08:37:17;101834.0;;;24.49;58.48
61676;BME280;47574;52.090;5.244;2022-08-01T08:39:04;101840.0;;;24.31;58.76
61676;BME280;47574;52.090;5.244;2022-08-01T08:42:39;101841.0;;;24.29;58.77
61676;BME280;47574;52.090;5.244;2022-08-01T08:44:26;101848.0;;;24.35;58.74
61676;BME280;47574;52.090;5.244;2022-08-01T08:46:14;101852.0;;;24.44;58.14
61676;BME280;47574;52.090;5.244;2022-08-01T08:48:00;101850.0;;;24.42;58.2
61676;BME280;47574;52.090;5.244;2022-08-01T08:49:50;101850.0;;;24.65;58.28
61676;BME280;47574;52.090;5.244;2022-08-01T08:51:38;101851.0;;;24.66;57.69
61676;BME280;47574;52.090;5.244;2022-08-01T08:55:16;101851.0;;;24.7;57.55
61676;BME280;47574;52.090;5.244;2022-08-01T08:57:04;101853.0;;;24.64;56.88
61676;BME280;47574;52.090;5.244;2022-08-01T08:58:52;101852.0;;;24.76;56.13
61676;BME280;47574;52.090;5.244;2022-08-01T09:00:38;101852.0;;;24.82;55.87
61676;BME280;47574;52.090;5.244;2022-08-01T09:02:25;101856.0;;;24.76;55.6
61676;BME280;47574;52.090;5.244;2022-08-01T09:04:12;101855.0;;;24.72;54.28
61676;BME280;47574;52.090;5.244;2022-08-01T09:07:46;101858.0;;;24.71;55.34
61676;BME280;47574;52.090;5.244;2022-08-01T09:09:33;101857.0;;;24.91;55.45
61676;BME280;47574;52.090;5.244;2022-08-01T09:11:19;101861.0;;;25.06;55.35
61676;BME280;47574;52.090;5.244;2022-08-01T09:13:09;101866.0;;;24.99;54.06
61676;BME280;47574;52.090;5.244;2022-08-01T09:14:56;101869.0;;;25.01;55.01
61676;BME280;47574;52.090;5.244;2022-08-01T09:16:44;101873.0;;;25.32;54.17
61676;BME280;47574;52.090;5.244;2022-08-01T09:20:22;101875.0;;;25.12;54.12
61676;BME280;47574;52.090;5.244;2022-08-01T09:22:11;101876.0;;;25.32;53.99
61676;BME280;47574;52.090;5.244;2022-08-01T09:24:03;101873.0;;;25.39;53.72
61676;BME280;47574;52.090;5.244;2022-08-01T09:25:51;101875.0;;;25.23;52.63
61676;BME280;47574;52.090;5.244;2022-08-01T09:27:39;101875.0;;;25.32;52.63
61676;BME280;47574;52.090;5.244;2022-08-01T09:29:28;101874.0;;;25.3;51.58
61676;BME280;47574;52.090;5.244;2022-08-01T09:33:05;101881.0;;;25.28;51.59
61676;BME280;47574;52.090;5.244;2022-08-01T09:34:51;101887.0;;;25.25;51.69
61676;BME280;47574;52.090;5.244;2022-08-01T09:36:54;101887.0;;;25.27;50.33
61676;BME280;47574;52.090;5.244;2022-08-01T09:38:41;101888.0;;;25.34;51.02
61676;BME280;47574;52.090;5.244;2022-08-01T09:40:44;101887.0;;;25.41;50.73
61676;BME280;47574;52.090;5.244;2022-08-01T09:42:30;101892.0;;;25.34;49.97
61676;BME280;47574;52.090;5.244;2022-08-01T09:44:18;101894.0;;;25.35;49.65
61676;BME280;47574;52.090;5.244;2022-08-01T09:46:05;101892.0;;;25.41;50.53
61676;BME280;47574;52.090;5.244;2022-08-01T09:49:43;101890.0;;;25.52;50.23
61676;BME280;47574;52.090;5.244;2022-08-01T09:51:31;101893.0;;;25.57;51.04
61676;BME280;47574;52.090;5.244;2022-08-01T09:53:20;101898.0;;;25.63;50.57
61676;BME280;47574;52.090;5.244;2022-08-01T09:55:08;101898.0;;;25.63;50.21
61676;BME280;47574;52.090;5.244;2022-08-01T09:57:07;101900.0;;;25.77;50.25
61676;BME280;47574;52.090;5.244;2022-08-01T09:58:56;101896.0;;;25.54;50.23
61676;BME280;47574;52.090;5.244;2022-08-01T10:00:43;101897.0;;;25.81;49.11
61676;BME280;47574;52.090;5.244;2022-08-01T10:02:45;101891.0;;;25.65;49.61
61676;BME280;47574;52.090;5.244;2022-08-01T10:06:20;101891.0;;;25.71;49.74
61676;BME280;47574;52.090;5.244;2022-08-01T10:11:41;101897.0;;;25.84;48.2
61676;BME280;47574;52.090;5.244;2022-08-01T10:13:30;101902.0;;;25.84;49.07
61676;BME280;47574;52.090;5.244;2022-08-01T10:15:17;101908.0;;;25.85;48.39
61676;BME280;47574;52.090;5.244;2022-08-01T10:18:54;101901.0;;;25.61;49.23
61676;BME280;47574;52.090;5.244;2022-08-01T10:20:43;101906.0;;;25.79;47.92
61676;BME280;47574;52.090;5.244;2022-08-01T10:22:31;101909.0;;;25.79;47.65
61676;BME280;47574;52.090;5.244;2022-08-01T10:24:19;101910.0;;;25.75;47.04
61676;BME280;47574;52.090;5.244;2022-08-01T10:26:07;101906.0;;;25.83;47.01
61676;BME280;47574;52.090;5.244;2022-08-01T10:27:56;101905.0;;;25.88;47.83
61676;BME280;47574;52.090;5.244;2022-08-01T10:31:40;101907.0;;;26.12;47.7
61676;BME280;47574;52.090;5.244;2022-08-01T10:33:26;101903.0;;;26.06;47.01
61676;BME280;47574;52.090;5.244;2022-08-01T10:35:18;101903.0;;;26.28;46.73
61676;BME280;47574;52.090;5.244;2022-08-01T10:37:05;101900.0;;;26.2;45.44
61676;BME280;47574;52.090;5.244;2022-08-01T10:38:54;101901.0;;;26.23;45.36
61676;BME280;47574;52.090;5.244;2022-08-01T10:40:42;101902.0;;;25.96;45.1
61676;BME280;47574;52.090;5.244;2022-08-01T10:42:29;101905.0;;;26.09;45.29
61676;BME280;47574;52.090;5.244;2022-08-01T10:46:03;101910.0;;;26.22;45.95
61676;BME280;47574;52.090;5.244;2022-08-01T10:47:58;101903.0;;;26.28;45.67
61676;BME280;47574;52.090;5.244;2022-08-01T10:49:47;101896.0;;;26.27;45.18
61676;BME280;47574;52.090;5.244;2022-08-01T10:51:40;101902.0;;;26.35;45.65
61676;BME280;47574;52.090;5.244;2022-08-01T10:53:28;101901.0;;;26.32;45.26
61676;BME280;47574;52.090;5.244;2022-08-01T10:55:14;101905.0;;;26.33;45.04
61676;BME280;47574;52.090;5.244;2022-08-01T10:58:48;101903.0;;;26.43;44.95
61676;BME280;47574;52.090;5.244;2022-08-01T11:00:34;101902.0;;;26.68;44.2
61676;BME280;47574;52.090;5.244;2022-08-01T11:02:27;101905.0;;;26.73;44.06
61676;BME280;47574;52.090;5.244;2022-08-01T11:04:14;101908.0;;;26.76;44.57
61676;BME280;47574;52.090;5.244;2022-08-01T11:06:03;101908.0;;;26.51;43.8
61676;BME280;47574;52.090;5.244;2022-08-01T11:07:52;101906.0;;;26.56;43.88
61676;BME280;47574;52.090;5.244;2022-08-01T11:09:41;101906.0;;;26.6;43.12
61676;BME280;47574;52.090;5.244;2022-08-01T11:14:00;101906.0;;;26.26;42.56